Time;durP1;ratioP1;P1;durP2;ratioP2;P2;SDS_P1;SDS_P2;PMS_P1;PMS_P2;Temp;Humidity;BMP_temperature;BMP_pressure;BME280_temperature;BME280_humidity;BME280_pressure;Samples;Min_cycle;Max_cycle;Signal;HPM_P1;HPM_P2
2022/04/23 00:00:21;;;;;;;32.53;18.63;;;7.20;99.90;;;;;;4911485;29;20056;-50
2022/04/23 00:02:49;;;;;;;28.58;17.45;;;7.20;99.90;;;;;;4910379;29;20153;-50
2022/04/23 00:05:15;;;;;;;;;;;7.30;99.90;;;;;;4911522;29;20052;-51
2022/04/23 00:07:42;;;;;;;26.73;16.30;;;7.30;99.90;;;;;;4895029;29;19923;-49
2022/04/23 00:10:09;;;;;;;27.75;16.92;;;7.30;99.90;;;;;;4913515;29;20048;-50
2022/04/23 00:12:37;;;;;;;32.33;18.65;;;7.30;99.90;;;;;;4910107;29;20111;-50
2022/04/23 00:15:05;;;;;;;29.25;18.13;;;7.30;99.90;;;;;;4915153;29;20036;-49
2022/04/23 00:17:33;;;;;;;27.85;17.77;;;7.30;99.90;;;;;;4910115;29;20032;-54
2022/04/23 00:20:00;;;;;;;30.10;17.02;;;7.30;99.90;;;;;;4913489;29;20052;-51
2022/04/23 00:22:27;;;;;;;26.30;16.83;;;7.30;99.90;;;;;;4910313;29;20516;-52
2022/04/23 00:24:54;;;;;;;25.67;16.63;;;7.30;99.90;;;;;;4915094;29;20079;-51
2022/04/23 00:27:21;;;;;;;31.85;18.08;;;7.30;99.90;;;;;;4909985;29;20048;-51
2022/04/23 00:29:48;;;;;;;28.65;15.57;;;7.30;99.90;;;;;;4914789;29;20056;-52
2022/04/23 00:32:15;;;;;;;29.33;17.10;;;7.30;99.90;;;;;;4909823;29;20517;-53
2022/04/23 00:34:42;;;;;;;32.25;18.83;;;7.30;99.90;;;;;;4914829;29;20084;-53
2022/04/23 00:37:10;;;;;;;25.65;17.65;;;7.30;99.90;;;;;;4908832;29;20048;-50
2022/04/23 00:39:36;;;;;;;25.77;16.60;;;7.30;99.90;;;;;;4914544;29;20040;-52
2022/04/23 00:42:08;;;;;;;27.98;17.38;;;7.30;99.90;;;;;;4910087;29;20064;-51
2022/04/23 00:44:37;;;;;;;30.05;17.50;;;7.40;99.90;;;;;;4914687;29;20060;-51
2022/04/23 00:47:05;;;;;;;28.42;18.25;;;7.40;99.90;;;;;;4907664;29;20140;-50
2022/04/23 00:49:33;;;;;;;;;;;7.50;99.90;;;;;;4914885;29;20040;-50
2022/04/23 00:52:01;;;;;;;26.70;16.92;;;7.50;99.90;;;;;;4910601;29;19927;-51
2022/04/23 00:54:27;;;;;;;32.40;18.30;;;7.50;99.90;;;;;;4909434;29;20051;-49
2022/04/23 00:56:54;;;;;;;28.35;17.85;;;7.60;99.90;;;;;;4911013;29;20044;-52
2022/04/23 00:59:22;;;;;;;31.35;18.95;;;7.60;99.90;;;;;;4913552;29;20052;-52
2022/04/23 01:01:53;;;;;;;31.02;17.95;;;7.60;99.90;;;;;;4909592;29;20056;-54
2022/04/23 01:04:20;;;;;;;29.83;18.48;;;7.50;99.90;;;;;;4918311;29;20044;-55
2022/04/23 01:06:47;;;;;;;36.58;19.50;;;7.50;99.90;;;;;;4915988;29;20051;-52
2022/04/23 01:09:14;;;;;;;28.60;18.35;;;7.50;99.90;;;;;;4916711;29;20052;-53
2022/04/23 01:11:41;;;;;;;26.83;17.17;;;7.50;99.90;;;;;;4910175;29;20072;-51
2022/04/23 01:14:08;;;;;;;30.70;18.65;;;7.50;99.90;;;;;;4915965;29;20174;-53
2022/04/23 01:16:35;;;;;;;33.05;19.52;;;7.50;99.90;;;;;;4918268;29;20052;-50
2022/04/23 01:19:02;;;;;;;33.67;18.25;;;7.50;99.90;;;;;;4917563;29;20048;-51
2022/04/23 01:21:28;;;;;;;28.80;17.70;;;7.50;99.90;;;;;;4917886;29;20047;-50
2022/04/23 01:23:57;;;;;;;27.55;17.13;;;7.50;99.90;;;;;;4918568;29;20052;-50
2022/04/23 01:26:27;;;;;;;29.85;17.17;;;7.60;99.90;;;;;;4917158;29;20519;-54
2022/04/23 01:28:56;;;;;;;31.10;18.20;;;7.60;99.90;;;;;;4914025;29;20044;-52
2022/04/23 01:31:23;;;;;;;27.17;17.13;;;7.60;99.90;;;;;;4917661;29;20051;-50
2022/04/23 01:33:50;;;;;;;33.75;17.80;;;7.60;99.90;;;;;;4918332;29;20055;-51
2022/04/23 01:36:17;;;;;;;27.00;16.60;;;7.60;99.90;;;;;;4914096;29;20103;-49
2022/04/23 01:38:45;;;;;;;34.40;18.30;;;7.60;99.90;;;;;;4917998;29;20048;-51
2022/04/23 01:41:12;;;;;;;;;;;7.60;99.90;;;;;;4918156;29;20044;-49
2022/04/23 01:43:39;;;;;;;26.95;16.90;;;7.60;99.90;;;;;;4918175;29;20641;-51
2022/04/23 01:46:06;;;;;;;29.58;17.67;;;7.70;99.90;;;;;;4912357;29;20048;-50
2022/04/23 01:48:33;;;;;;;29.95;17.65;;;7.70;99.90;;;;;;4918212;29;20161;-50
2022/04/23 01:51:00;;;;;;;29.92;17.35;;;7.80;99.90;;;;;;4917355;29;20049;-50
2022/04/23 01:53:27;;;;;;;26.65;16.25;;;7.80;99.90;;;;;;4910932;29;20054;-52
2022/04/23 01:55:55;;;;;;;24.98;16.40;;;7.80;99.90;;;;;;4918041;29;20405;-50
2022/04/23 01:58:22;;;;;;;26.70;15.65;;;7.80;99.90;;;;;;4917811;29;20048;-50
2022/04/23 02:00:50;;;;;;;24.67;15.30;;;7.80;99.90;;;;;;4896440;29;20051;-51
2022/04/23 02:03:17;;;;;;;28.63;16.60;;;7.90;99.90;;;;;;4916159;29;20067;-51
2022/04/23 02:05:44;;;;;;;29.30;17.67;;;7.80;99.90;;;;;;4900913;29;20044;-51
2022/04/23 02:08:15;;;;;;;31.15;18.13;;;7.80;99.90;;;;;;4917647;29;20063;-50
2022/04/23 02:10:42;;;;;;;27.65;17.00;;;7.80;99.90;;;;;;4909665;29;20044;-50
2022/04/23 02:13:10;;;;;;;32.10;16.58;;;7.80;99.90;;;;;;4917240;29;20055;-51
2022/04/23 02:15:39;;;;;;;29.65;18.08;;;7.80;99.90;;;;;;4917092;29;20052;-52
2022/04/23 02:18:08;;;;;;;29.90;17.02;;;7.80;99.90;;;;;;4916211;29;20043;-50
2022/04/23 02:20:35;;;;;;;27.17;17.17;;;7.70;99.90;;;;;;4910060;29;20493;-50
2022/04/23 02:23:02;;;;;;;;;;;7.70;99.90;;;;;;4917774;29;20063;-50
2022/04/23 02:25:29;;;;;;;28.85;17.42;;;7.80;99.90;;;;;;4917193;29;19994;-50
2022/04/23 02:27:55;;;;;;;28.55;17.88;;;7.90;99.90;;;;;;4911581;29;20044;-52
2022/04/23 02:30:23;;;;;;;28.35;16.75;;;7.90;99.90;;;;;;4916663;29;20071;-50
2022/04/23 02:32:49;;;;;;;28.88;17.48;;;7.90;99.90;;;;;;4917293;29;20044;-50
2022/04/23 02:35:17;;;;;;;30.48;18.02;;;7.90;99.90;;;;;;4930537;23;20096;-55
2022/04/23 02:37:45;;;;;;;;;;;7.90;99.90;;;;;;4911554;29;20047;-53
2022/04/23 02:40:13;;;;;;;33.50;17.65;;;7.90;99.90;;;;;;4916302;29;19945;-52
2022/04/23 02:42:40;;;;;;;30.25;17.88;;;7.90;99.90;;;;;;4917022;29;20047;-51
2022/04/23 02:45:09;;;;;;;29.67;17.40;;;7.90;99.90;;;;;;4909129;29;20056;-51
2022/04/23 02:47:46;;;;;;;29.45;18.55;;;7.90;99.90;;;;;;4916804;29;20048;-51
2022/04/23 02:50:15;;;;;;;33.42;17.90;;;8.00;99.90;;;;;;4916613;29;20056;-51
2022/04/23 02:52:43;;;;;;;31.67;19.27;;;8.00;99.90;;;;;;4914292;29;20108;-52
2022/04/23 02:55:11;;;;;;;46.55;23.25;;;8.00;99.90;;;;;;4914535;29;20068;-51
2022/04/23 02:57:40;;;;;;;41.30;21.23;;;8.00;99.90;;;;;;4916707;29;20044;-52
2022/04/23 03:00:08;;;;;;;34.08;18.58;;;8.00;99.90;;;;;;4916254;29;20405;-52
2022/04/23 03:02:36;;;;;;;30.48;18.50;;;8.10;99.90;;;;;;4913997;29;20039;-52
2022/04/23 03:05:11;;;;;;;39.33;20.85;;;8.20;99.90;;;;;;4916484;29;20139;-51
2022/04/23 03:07:39;;;;;;;45.63;22.85;;;8.20;99.90;;;;;;4916561;29;20718;-55
2022/04/23 03:10:08;;;;;;;47.03;22.52;;;8.10;99.90;;;;;;4916165;29;20051;-53
2022/04/23 03:12:38;;;;;;;36.03;19.42;;;8.20;99.90;;;;;;4911055;29;20072;-52
2022/04/23 03:15:07;;;;;;;29.83;17.42;;;8.30;99.90;;;;;;4911501;29;20143;-53
2022/04/23 03:17:34;;;;;;;28.15;17.35;;;8.20;99.90;;;;;;4934219;29;20039;-52
2022/04/23 03:20:02;;;;;;;27.42;16.65;;;8.30;99.90;;;;;;4932324;29;20051;-52
2022/04/23 03:22:29;;;;;;;30.35;17.98;;;8.30;99.90;;;;;;4908667;29;20100;-54
2022/04/23 03:24:55;;;;;;;29.75;18.80;;;8.40;99.90;;;;;;4915858;29;20049;-53
2022/04/23 03:27:22;;;;;;;29.08;17.73;;;8.40;99.90;;;;;;4915499;29;20059;-53
2022/04/23 03:29:49;;;;;;;33.08;18.85;;;8.40;99.90;;;;;;4907895;29;20052;-51
2022/04/23 03:32:16;;;;;;;35.47;20.27;;;8.40;99.90;;;;;;4916027;29;20060;-54
2022/04/23 03:34:42;;;;;;;34.45;19.58;;;8.40;99.90;;;;;;4916336;29;20280;-52
2022/04/23 03:37:09;;;;;;;28.77;18.97;;;8.30;99.90;;;;;;4915817;29;20104;-51
2022/04/23 03:39:36;;;;;;;27.77;18.20;;;8.30;99.90;;;;;;4910187;29;20634;-51
2022/04/23 03:42:04;;;;;;;28.05;18.63;;;8.30;99.90;;;;;;4915726;29;20103;-51
2022/04/23 03:44:31;;;;;;;31.55;16.58;;;8.40;99.90;;;;;;4916012;29;20044;-54
2022/04/23 03:47:00;;;;;;;29.63;17.27;;;8.40;99.90;;;;;;4915944;29;20083;-55
2022/04/23 03:49:27;;;;;;;32.72;18.00;;;8.40;99.90;;;;;;4908603;29;20048;-55
2022/04/23 03:51:54;;;;;;;31.90;18.80;;;8.40;99.90;;;;;;4915787;29;20445;-52
2022/04/23 03:54:21;;;;;;;27.88;17.20;;;8.40;99.90;;;;;;4915854;29;20104;-53
2022/04/23 03:56:48;;;;;;;34.10;18.50;;;8.40;99.90;;;;;;4914271;29;20382;-52
2022/04/23 03:59:15;;;;;;;30.77;18.13;;;8.40;99.90;;;;;;4915599;29;20690;-54
2022/04/23 04:01:42;;;;;;;29.70;17.38;;;8.30;99.90;;;;;;4915358;29;20047;-54
2022/04/23 04:04:09;;;;;;;31.60;18.50;;;8.30;99.90;;;;;;4914541;29;20514;-51
2022/04/23 04:06:35;;;;;;;28.37;17.60;;;8.30;99.90;;;;;;4908797;29;20044;-55
2022/04/23 04:09:02;;;;;;;34.25;19.27;;;8.40;99.90;;;;;;4915367;29;20056;-52
2022/04/23 04:12:01;;;;;;;30.48;18.83;;;8.40;99.90;;;;;;4915299;29;20052;-52
2022/04/23 04:14:16;;;;;;;26.63;16.85;;;8.40;99.90;;;;;;4913637;29;20467;-52
2022/04/23 04:16:45;;;;;;;31.08;17.73;;;8.40;99.90;;;;;;4915326;29;20044;-52
2022/04/23 04:19:14;;;;;;;34.63;19.52;;;8.40;99.90;;;;;;4915370;29;20040;-52
2022/04/23 04:21:43;;;;;;;27.80;18.42;;;8.40;99.90;;;;;;4914983;29;20099;-52
2022/04/23 04:24:16;;;;;;;34.95;18.73;;;8.40;99.90;;;;;;4911491;29;20049;-52
2022/04/23 04:26:44;;;;;;;32.33;19.35;;;8.40;99.90;;;;;;4915324;29;20040;-51
2022/04/23 04:29:11;;;;;;;31.65;20.05;;;8.40;99.90;;;;;;4915380;29;20059;-52
2022/04/23 04:31:47;;;;;;;37.20;22.38;;;8.40;99.90;;;;;;4914930;29;20048;-52
2022/04/23 04:34:18;;;;;;;36.17;22.02;;;8.40;99.90;;;;;;4907135;29;20063;-52
2022/04/23 04:36:46;;;;;;;37.78;22.92;;;8.40;99.90;;;;;;4915617;29;20056;-55
2022/04/23 04:39:15;;;;;;;35.70;19.35;;;8.40;99.90;;;;;;4919167;29;20044;-52
2022/04/23 04:41:43;;;;;;;33.58;19.77;;;8.50;99.90;;;;;;4919062;29;20059;-51
2022/04/23 04:44:10;;;;;;;35.05;20.40;;;8.50;99.90;;;;;;4910721;29;20111;-52
2022/04/23 04:46:38;;;;;;;38.47;20.67;;;8.50;99.90;;;;;;4919131;29;20041;-53
2022/04/23 04:49:06;;;;;;;36.67;21.55;;;8.60;99.90;;;;;;4919111;29;20055;-51
2022/04/23 04:51:36;;;;;;;37.70;21.70;;;8.50;99.90;;;;;;4918633;29;20099;-52
2022/04/23 04:54:06;;;;;;;31.98;20.20;;;8.50;99.90;;;;;;4916549;29;20052;-52
2022/04/23 04:56:33;;;;;;;35.38;21.23;;;8.60;99.90;;;;;;4901858;29;20060;-52
2022/04/23 04:59:04;;;;;;;38.05;21.95;;;8.70;99.90;;;;;;4918887;29;20051;-54
2022/04/23 05:01:31;;;;;;;42.58;23.80;;;8.70;99.90;;;;;;4915642;29;20036;-52
2022/04/23 05:03:58;;;;;;;40.45;22.92;;;8.80;99.90;;;;;;4918720;29;20084;-51
2022/04/23 05:06:25;;;;;;;39.70;23.87;;;8.80;99.90;;;;;;4918582;29;20099;-51
2022/04/23 05:08:51;;;;;;;40.63;24.15;;;9.00;99.90;;;;;;4918612;29;20631;-52
2022/04/23 05:11:18;;;;;;;40.47;24.05;;;9.00;99.90;;;;;;4909371;29;20051;-52
2022/04/23 05:13:45;;;;;;;40.58;22.58;;;9.10;99.90;;;;;;4918609;29;20092;-51
2022/04/23 05:16:11;;;;;;;38.67;23.35;;;9.20;99.90;;;;;;4918554;29;20040;-51
2022/04/23 05:18:39;;;;;;;39.33;23.55;;;9.20;99.90;;;;;;4910924;29;20048;-53
2022/04/23 05:21:05;;;;;;;36.63;22.05;;;9.20;99.90;;;;;;4917987;29;20501;-51
2022/04/23 05:23:32;;;;;;;41.70;22.40;;;9.20;99.90;;;;;;4918509;29;20055;-53
2022/04/23 05:25:59;;;;;;;45.38;24.38;;;9.30;99.90;;;;;;4915589;29;20048;-52
2022/04/23 05:28:26;;;;;;;41.53;23.92;;;9.30;99.90;;;;;;4918171;29;20040;-54
2022/04/23 05:30:52;;;;;;;42.67;22.83;;;9.20;99.90;;;;;;4917755;29;20048;-55
2022/04/23 05:33:19;;;;;;;38.65;22.20;;;9.20;99.90;;;;;;4918466;29;20044;-52
2022/04/23 05:35:46;;;;;;;37.72;23.13;;;9.00;99.90;;;;;;4912953;29;20036;-52
2022/04/23 05:38:13;;;;;;;37.88;22.20;;;9.00;99.90;;;;;;4918152;29;20453;-51
2022/04/23 05:40:40;;;;;;;39.50;22.65;;;9.10;99.90;;;;;;4917578;29;20056;-51
2022/04/23 05:43:06;;;;;;;35.25;20.85;;;9.20;99.90;;;;;;4910209;29;20052;-51
2022/04/23 05:45:33;;;;;;;40.92;23.30;;;9.30;99.90;;;;;;4917903;29;20048;-52
2022/04/23 05:48:00;;;;;;;37.88;21.88;;;9.40;99.90;;;;;;4917678;29;20078;-54
2022/04/23 05:50:27;;;;;;;42.15;24.02;;;9.50;99.90;;;;;;4917407;29;20103;-51
2022/04/23 05:52:55;;;;;;;43.10;23.73;;;9.40;99.90;;;;;;4915231;29;20113;-51
2022/04/23 05:55:21;;;;;;;;;;;9.40;99.90;;;;;;4918123;29;20497;-53
2022/04/23 05:57:48;;;;;;;46.90;24.35;;;9.60;99.90;;;;;;4917952;29;19978;-53
2022/04/23 06:00:15;;;;;;;43.67;24.23;;;9.60;99.90;;;;;;4917414;29;20064;-52
2022/04/23 06:02:42;;;;;;;41.00;24.52;;;9.70;99.90;;;;;;4916711;29;20055;-53
2022/04/23 06:05:10;;;;;;;39.95;22.85;;;9.60;99.90;;;;;;4917366;29;20094;-52
2022/04/23 06:07:37;;;;;;;39.90;23.85;;;9.60;99.90;;;;;;4917474;29;20048;-51
2022/04/23 06:10:05;;;;;;;40.80;23.27;;;9.60;99.90;;;;;;4916572;29;20056;-51
2022/04/23 06:12:34;;;;;;;42.08;24.42;;;9.70;99.90;;;;;;4917393;29;20497;-51
2022/04/23 06:15:00;;;;;;;38.20;21.52;;;9.70;99.90;;;;;;4915999;29;20048;-53
2022/04/23 06:17:28;;;;;;;40.03;23.92;;;9.80;99.90;;;;;;4917585;29;20044;-52
2022/04/23 06:19:56;;;;;;;43.08;24.65;;;9.80;99.90;;;;;;4911783;29;20040;-52
2022/04/23 06:22:23;;;;;;;;;;;9.80;99.90;;;;;;4917746;29;20107;-52
2022/04/23 06:24:51;;;;;;;42.33;23.15;;;9.80;99.90;;;;;;4917438;29;19923;-53
2022/04/23 06:27:18;;;;;;;40.38;23.48;;;9.80;99.90;;;;;;4917312;29;20044;-51
2022/04/23 06:29:45;;;;;;;43.67;25.35;;;9.90;99.90;;;;;;4914106;29;20044;-52
2022/04/23 06:32:12;;;;;;;42.33;23.50;;;10.10;99.90;;;;;;4917508;29;20401;-52
2022/04/23 06:34:40;;;;;;;37.10;22.30;;;10.30;99.90;;;;;;4917207;29;20417;-53
2022/04/23 06:37:08;;;;;;;38.20;22.02;;;10.10;99.90;;;;;;4914050;29;20052;-54
2022/04/23 06:39:35;;;;;;;37.63;23.10;;;10.00;99.90;;;;;;4916594;29;20572;-52
2022/04/23 06:42:02;;;;;;;39.25;22.05;;;9.90;99.90;;;;;;4916986;29;20052;-52
2022/04/23 06:44:29;;;;;;;39.05;20.70;;;10.00;99.90;;;;;;4917030;29;20497;-52
2022/04/23 06:46:56;;;;;;;36.92;20.85;;;10.30;99.90;;;;;;4912826;29;20051;-52
2022/04/23 06:49:24;;;;;;;40.95;20.63;;;10.60;99.90;;;;;;4916511;29;20051;-52
2022/04/23 06:51:51;;;;;;;32.50;19.15;;;10.70;99.90;;;;;;4916301;29;20063;-52
2022/04/23 06:54:17;;;;;;;34.35;19.58;;;10.90;99.90;;;;;;4914748;29;20386;-53
2022/04/23 06:56:44;;;;;;;32.17;19.42;;;10.90;99.90;;;;;;4910752;29;20043;-52
2022/04/23 06:59:12;;;;;;;31.42;18.38;;;10.80;99.90;;;;;;4916670;29;20093;-52
2022/04/23 07:01:42;;;;;;;31.35;18.10;;;10.90;99.90;;;;;;4914632;29;20051;-54
2022/04/23 07:04:10;;;;;;;31.70;18.60;;;11.00;99.90;;;;;;4914085;29;20489;-54
2022/04/23 07:06:37;;;;;;;;;;;11.10;99.90;;;;;;4916643;29;20044;-51
2022/04/23 07:09:04;;;;;;;28.63;18.15;;;11.10;99.90;;;;;;4916467;29;19923;-56
2022/04/23 07:11:33;;;;;;;33.65;19.88;;;11.20;99.90;;;;;;4915038;29;20498;-53
2022/04/23 07:13:59;;;;;;;29.02;18.88;;;11.30;99.90;;;;;;4912832;29;20047;-53
2022/04/23 07:16:26;;;;;;;29.85;18.20;;;11.50;99.90;;;;;;4915590;29;20051;-52
2022/04/23 07:18:53;;;;;;;30.65;18.15;;;11.70;99.90;;;;;;4916386;29;20103;-51
2022/04/23 07:21:21;;;;;;;31.83;19.50;;;11.70;99.90;;;;;;4914707;29;20067;-54
2022/04/23 07:24:05;;;;;;;32.45;19.58;;;11.40;99.90;;;;;;4911132;29;20067;-53
2022/04/23 07:26:37;;;;;;;28.90;18.17;;;11.50;99.90;;;;;;4897330;29;20060;-53
2022/04/23 07:29:07;;;;;;;28.73;18.45;;;11.90;99.90;;;;;;4897342;29;20049;-52
2022/04/23 07:31:34;;;;;;;26.70;17.67;;;12.10;99.90;;;;;;4908742;29;20114;-52
2022/04/23 07:39:33;;;;;;;29.70;17.95;;;12.20;99.90;;;;;;4915667;29;20102;-53
2022/04/23 07:42:01;;;;;;;28.83;18.05;;;12.20;99.90;;;;;;4913938;29;20126;-51
2022/04/23 07:44:28;;;;;;;25.60;16.58;;;12.10;99.90;;;;;;4910881;29;20095;-55
2022/04/23 07:46:54;;;;;;;24.35;15.98;;;12.20;99.90;;;;;;4915360;29;20048;-51
2022/04/23 07:49:21;;;;;;;24.95;16.45;;;12.30;99.90;;;;;;4915293;29;20044;-53
2022/04/23 07:51:49;;;;;;;25.17;15.30;;;12.50;99.90;;;;;;4915520;29;20478;-52
2022/04/23 07:54:16;;;;;;;26.25;16.88;;;12.80;99.90;;;;;;4912297;29;20126;-54
2022/04/23 07:56:44;;;;;;;24.05;15.93;;;13.20;99.90;;;;;;4915605;29;20048;-54
2022/04/23 07:59:11;;;;;;;24.52;16.85;;;13.50;99.90;;;;;;4915077;29;20036;-52
2022/04/23 08:01:38;;;;;;;23.95;15.32;;;13.70;99.90;;;;;;4913978;29;20043;-58
2022/04/23 08:04:06;;;;;;;21.80;15.70;;;13.60;99.90;;;;;;4912006;29;20103;-59
2022/04/23 08:06:34;;;;;;;24.23;16.25;;;13.60;99.90;;;;;;4915042;29;20047;-59
2022/04/23 08:09:00;;;;;;;26.50;16.00;;;13.60;99.90;;;;;;4915478;29;20044;-58
2022/04/23 08:11:27;;;;;;;23.92;15.23;;;13.40;99.90;;;;;;4914675;29;20051;-58
2022/04/23 08:13:54;;;;;;;24.02;15.27;;;13.50;99.90;;;;;;4912410;29;20048;-58
2022/04/23 08:16:21;;;;;;;28.52;15.88;;;13.70;99.90;;;;;;4915309;29;20067;-59
2022/04/23 08:18:48;;;;;;;26.30;17.55;;;13.70;99.90;;;;;;4915359;29;20074;-59
2022/04/23 08:21:14;;;;;;;24.88;16.70;;;13.60;99.90;;;;;;4913196;29;20820;-59
2022/04/23 08:23:41;;;;;;;24.88;16.77;;;13.60;99.90;;;;;;4915366;29;20059;-59
2022/04/23 08:26:08;;;;;;;26.67;16.02;;;13.50;99.90;;;;;;4915172;29;20044;-59
2022/04/23 08:31:21;;;;;;;30.65;17.00;;;13.60;99.90;;;;;;4912391;29;20067;-59
2022/04/23 08:34:00;;;;;;;23.33;15.38;;;13.50;99.90;;;;;;4914764;29;20060;-59
2022/04/23 08:36:29;;;;;;;23.05;15.50;;;13.80;99.90;;;;;;4926928;23;20509;-56
2022/04/23 08:38:59;;;;;;;21.63;14.70;;;14.00;99.90;;;;;;4906906;29;20417;-55
2022/04/23 08:45:51;;;;;;;22.73;15.50;;;14.20;99.90;;;;;;4893189;29;20040;-55
2022/04/23 08:48:19;;;;;;;22.23;15.65;;;14.30;99.90;;;;;;4893476;29;20060;-57
2022/04/23 08:50:50;;;;;;;21.83;15.00;;;14.60;99.90;;;;;;4894538;29;20052;-57
2022/04/23 08:53:20;;;;;;;26.05;16.75;;;14.50;99.90;;;;;;4902501;29;20096;-57
2022/04/23 08:55:57;;;;;;;23.02;16.42;;;14.90;99.90;;;;;;4906115;29;20052;-57
2022/04/23 08:58:24;;;;;;;25.45;14.65;;;14.90;99.90;;;;;;4878795;29;20049;-57
2022/04/23 09:00:51;;;;;;;22.70;13.50;;;15.00;99.90;;;;;;4895679;29;20049;-56
2022/04/23 09:03:17;;;;;;;23.75;15.30;;;15.10;99.90;;;;;;4896219;29;20044;-56
2022/04/23 09:05:53;;;;;;;20.45;14.73;;;15.20;99.90;;;;;;4887123;29;20097;-57
2022/04/23 09:08:20;;;;;;;22.30;14.52;;;15.30;99.90;;;;;;4894560;29;20498;-56
2022/04/23 09:10:51;;;;;;;18.80;13.27;;;15.30;99.90;;;;;;4895300;29;20048;-57
2022/04/23 09:13:26;;;;;;;20.15;13.38;;;15.30;99.90;;;;;;4893605;29;20705;-59
2022/04/23 09:24:19;;;;;;;23.45;15.48;;;15.10;99.90;;;;;;4897244;29;20104;-58
2022/04/23 09:27:06;;;;;;;27.13;14.90;;;15.10;99.90;;;;;;4899264;29;20040;-58
2022/04/23 09:29:33;;;;;;;24.27;15.10;;;15.10;99.90;;;;;;4898238;29;20039;-58
2022/04/23 09:32:10;;;;;;;21.85;13.82;;;15.30;99.90;;;;;;4897842;29;20076;-56
2022/04/23 09:34:38;;;;;;;22.38;14.38;;;15.20;99.90;;;;;;4893022;29;20045;-57
2022/04/23 09:37:05;;;;;;;24.90;15.07;;;15.20;99.90;;;;;;4899173;29;20052;-58
2022/04/23 09:39:38;;;;;;;21.70;13.00;;;15.40;99.90;;;;;;4899014;29;20048;-59
2022/04/23 09:42:19;;;;;;;22.88;14.68;;;15.40;99.90;;;;;;4893230;29;20052;-57
2022/04/23 09:44:47;;;;;;;23.70;14.90;;;15.40;99.90;;;;;;4899188;29;20120;-58
2022/04/23 09:47:35;;;;;;;23.13;14.02;;;15.40;99.90;;;;;;4899323;29;20057;-58
2022/04/23 09:50:02;;;;;;;26.65;14.18;;;15.30;99.90;;;;;;4890521;29;20128;-56
2022/04/23 09:52:29;;;;;;;21.73;13.52;;;15.30;99.90;;;;;;4897892;29;20063;-54
2022/04/23 09:55:18;;;;;;;21.42;13.63;;;15.30;99.90;;;;;;4898371;29;20072;-56
2022/04/23 09:57:47;;;;;;;23.85;14.20;;;15.20;99.90;;;;;;4896027;29;20044;-54
2022/04/23 10:00:14;;;;;;;24.67;14.38;;;15.30;99.90;;;;;;4896032;29;20045;-56
2022/04/23 10:02:43;;;;;;;;;;;15.20;99.90;;;;;;4898771;29;20594;-56
2022/04/23 10:05:11;;;;;;;24.70;14.93;;;15.10;99.90;;;;;;4897623;29;19981;-57
2022/04/23 10:07:41;;;;;;;24.08;14.48;;;15.00;99.90;;;;;;4896592;29;20056;-56
2022/04/23 10:10:12;;;;;;;24.92;14.70;;;15.00;99.90;;;;;;4880844;29;20056;-57
2022/04/23 10:12:43;;;;;;;21.17;13.13;;;15.10;99.90;;;;;;4896709;29;20032;-56
2022/04/23 10:15:10;;;;;;;23.73;14.65;;;14.90;99.90;;;;;;4896605;29;20088;-57
2022/04/23 10:17:39;;;;;;;27.90;14.50;;;14.80;99.90;;;;;;4897443;29;20032;-56
2022/04/23 10:20:09;;;;;;;21.42;13.18;;;14.70;99.90;;;;;;4897338;29;20053;-56
2022/04/23 10:23:09;;;;;;;24.13;13.95;;;14.60;99.90;;;;;;4879231;29;20045;-55
2022/04/23 10:25:49;;;;;;;23.30;13.52;;;14.30;99.90;;;;;;4830211;29;20118;-55
2022/04/23 10:28:18;;;;;;;20.75;13.02;;;14.10;99.90;;;;;;4896842;29;20055;-56
2022/04/23 10:30:46;;;;;;;22.75;13.50;;;14.20;99.90;;;;;;4898017;29;20521;-56
2022/04/23 10:33:31;;;;;;;24.70;14.27;;;14.30;99.90;;;;;;4894955;29;20045;-57
2022/04/23 10:36:06;;;;;;;22.27;14.05;;;14.40;99.90;;;;;;4897562;29;20525;-55
2022/04/23 10:38:33;;;;;;;22.42;13.10;;;14.50;99.90;;;;;;4898236;29;20550;-56
2022/04/23 10:41:00;;;;;;;20.95;12.77;;;14.50;99.90;;;;;;4894867;29;20490;-57
2022/04/23 10:43:27;;;;;;;22.63;12.95;;;14.50;99.90;;;;;;4890180;29;20048;-58
2022/04/23 10:45:54;;;;;;;22.10;12.90;;;14.50;99.90;;;;;;4895176;29;20084;-57
2022/04/23 10:48:22;;;;;;;19.58;11.93;;;14.60;99.90;;;;;;4897542;29;20049;-57
2022/04/23 10:51:01;;;;;;;23.08;12.45;;;14.70;99.90;;;;;;4894661;29;20048;-56
2022/04/23 10:53:49;;;;;;;20.50;13.45;;;14.70;99.90;;;;;;4895016;29;20036;-55
2022/04/23 10:56:19;;;;;;;28.13;13.88;;;14.70;99.90;;;;;;4896403;29;20047;-56
2022/04/23 10:58:46;;;;;;;19.90;12.27;;;14.90;99.90;;;;;;4892387;29;20120;-56
2022/04/23 11:01:25;;;;;;;19.23;12.65;;;14.80;99.90;;;;;;4896903;29;20068;-57
2022/04/23 11:03:59;;;;;;;21.67;12.38;;;14.90;99.90;;;;;;4897560;29;20036;-57
2022/04/23 11:12:33;;;;;;;16.83;11.57;;;15.60;99.90;;;;;;4897507;29;20049;-57
2022/04/23 11:15:01;;;;;;;17.40;11.32;;;15.90;99.90;;;;;;4896930;29;20048;-56
2022/04/23 11:17:37;;;;;;;19.10;12.27;;;15.90;99.90;;;;;;4876364;29;20045;-56
2022/04/23 11:20:05;;;;;;;20.10;12.48;;;15.70;99.90;;;;;;4896663;29;20510;-57
2022/04/23 11:22:32;;;;;;;21.92;11.98;;;15.60;99.90;;;;;;4892613;29;20096;-56
2022/04/23 11:24:59;;;;;;;18.85;11.85;;;15.50;99.90;;;;;;4895421;29;20450;-55
2022/04/23 11:27:28;;;;;;;21.25;13.00;;;15.40;99.90;;;;;;4896866;29;20100;-56
2022/04/23 11:29:55;;;;;;;20.60;11.73;;;15.60;99.90;;;;;;4887948;29;20044;-56
2022/04/23 11:32:27;;;;;;;19.00;12.20;;;15.50;99.90;;;;;;4896926;29;20414;-57
2022/04/23 11:34:58;;;;;;;19.23;11.65;;;15.50;99.90;;;;;;4893978;29;20099;-56
2022/04/23 11:37:32;;;;;;;18.25;12.20;;;15.50;99.90;;;;;;4896492;29;20673;-55
2022/04/23 11:40:05;;;;;;;17.52;11.10;;;15.50;99.90;;;;;;4894605;29;20391;-56
2022/04/23 11:42:50;;;;;;;20.80;11.88;;;15.50;99.90;;;;;;4893646;29;20064;-57
2022/04/23 11:45:19;;;;;;;19.30;11.27;;;15.60;99.90;;;;;;4893968;29;20043;-57
2022/04/23 11:47:45;;;;;;;15.32;10.75;;;15.50;99.90;;;;;;4895802;29;20041;-57
2022/04/23 11:50:13;;;;;;;19.73;11.45;;;15.60;99.90;;;;;;4890209;29;20049;-56
2022/04/23 11:52:41;;;;;;;19.60;11.93;;;15.80;99.90;;;;;;4896876;29;20056;-56
2022/04/23 11:55:20;;;;;;;18.25;11.65;;;15.90;99.90;;;;;;4896770;29;20496;-57
2022/04/23 11:57:56;;;;;;;15.65;10.52;;;16.30;99.90;;;;;;4896743;29;20565;-55
2022/04/23 12:00:24;;;;;;;15.85;10.75;;;16.60;99.90;;;;;;4895529;29;20045;-56
2022/04/23 12:02:52;;;;;;;17.25;10.52;;;16.70;99.90;;;;;;4896270;29;20051;-56
2022/04/23 12:05:24;;;;;;;15.50;10.95;;;16.70;99.90;;;;;;4896329;29;20047;-56
2022/04/23 12:07:51;;;;;;;16.70;10.45;;;16.60;99.90;;;;;;4893893;29;20045;-56
2022/04/23 12:10:26;;;;;;;16.80;10.30;;;16.50;99.90;;;;;;4895279;29;20469;-55
2022/04/23 12:12:56;;;;;;;15.77;9.75;;;16.50;99.90;;;;;;4896312;29;20052;-56
2022/04/23 12:15:23;;;;;;;15.13;10.55;;;16.60;99.90;;;;;;4895220;29;20104;-55
2022/04/23 12:17:57;;;;;;;13.98;9.82;;;16.90;99.90;;;;;;4895962;29;20131;-57
2022/04/23 12:20:25;;;;;;;16.92;10.80;;;17.00;99.90;;;;;;4895899;29;20092;-55
2022/04/23 12:23:06;;;;;;;15.30;10.70;;;16.90;99.90;;;;;;4894935;29;20105;-55
2022/04/23 12:25:37;;;;;;;16.60;10.60;;;16.80;99.90;;;;;;4895080;29;20045;-56
2022/04/23 12:40:44;;;;;;;14.48;9.80;;;16.60;99.90;;;;;;4894032;29;20044;-56
2022/04/23 12:42:32;;;;;;;13.30;9.43;;;16.20;99.90;;;;;;4894470;29;20047;-55
2022/04/23 12:44:59;;;;;;;15.35;10.73;;;16.30;99.90;;;;;;4895547;29;20059;-56
2022/04/23 12:47:30;;;;;;;18.95;10.82;;;16.30;99.90;;;;;;4895844;29;20454;-55
2022/04/23 12:50:00;;;;;;;16.23;10.70;;;16.30;99.90;;;;;;4891972;29;20104;-56
2022/04/23 12:52:32;;;;;;;13.95;9.88;;;16.20;99.90;;;;;;4877449;29;20057;-55
2022/04/23 12:55:32;;;;;;;15.82;10.15;;;16.10;99.90;;;;;;4893285;29;20067;-54
2022/04/23 12:58:02;;;;;;;15.18;10.45;;;16.30;99.90;;;;;;4891526;29;20036;-53
2022/04/23 13:00:38;;;;;;;16.48;10.23;;;16.30;99.90;;;;;;4892037;29;20106;-55
2022/04/23 13:03:33;;;;;;;16.98;10.63;;;16.30;99.90;;;;;;4900172;29;20052;-56
2022/04/23 13:06:00;;;;;;;20.50;10.60;;;16.20;99.90;;;;;;4899711;29;20048;-57
2022/04/23 13:11:25;;;;;;;18.17;10.98;;;16.40;99.90;;;;;;4899292;29;20573;-57
2022/04/23 13:14:04;;;;;;;18.42;10.55;;;16.60;99.90;;;;;;4899662;29;20040;-55
2022/04/23 13:16:32;;;;;;;15.60;10.60;;;16.60;99.90;;;;;;4897964;29;20096;-55
2022/04/23 13:19:01;;;;;;;19.88;11.88;;;16.60;99.90;;;;;;4899035;29;20094;-56
2022/04/23 13:21:30;;;;;;;18.48;11.90;;;16.60;99.90;;;;;;4898786;29;20037;-55
2022/04/23 13:23:57;;;;;;;19.10;12.23;;;16.70;99.90;;;;;;4894421;29;20040;-56
2022/04/23 13:26:25;;;;;;;;;;;16.60;99.90;;;;;;4899648;29;20044;-55